Time;durP1;ratioP1;P1;durP2;ratioP2;P2;SDS_P1;SDS_P2;PMS_P1;PMS_P2;Temp;Humidity;BMP_temperature;BMP_pressure;BME280_temperature;BME280_humidity;BME280_pressure;Samples;Min_cycle;Max_cycle;Signal;HPM_P1;HPM_P2
2023/04/04 00:01:17;;;;;;;1.20;0.50;;;16.10;57.80;;;;;;5050664;28;20241;-47
2023/04/04 00:03:50;;;;;;;6.17;0.73;;;16.10;57.80;;;;;;5050075;28;20650;-46
2023/04/04 00:06:23;;;;;;;0.87;0.60;;;16.10;57.80;;;;;;5055662;28;20197;-46
2023/04/04 00:08:53;;;;;;;1.00;0.70;;;16.10;57.80;;;;;;5035064;28;20195;-47
2023/04/04 00:11:22;;;;;;;1.27;0.80;;;16.10;57.90;;;;;;5051803;28;20222;-47
2023/04/04 00:13:51;;;;;;;2.17;0.87;;;16.10;57.90;;;;;;5031855;28;20240;-46
2023/04/04 00:16:22;;;;;;;1.73;0.73;;;16.10;57.90;;;;;;5050931;28;20591;-46
2023/04/04 00:18:51;;;;;;;0.63;0.63;;;16.00;57.90;;;;;;5047105;28;20234;-47
2023/04/04 00:21:37;;;;;;;1.83;0.80;;;16.10;58.00;;;;;;5055343;28;20202;-47
2023/04/04 00:24:07;;;;;;;0.80;0.70;;;16.10;58.00;;;;;;5051359;28;20197;-47
2023/04/04 00:26:38;;;;;;;1.13;0.67;;;16.00;58.00;;;;;;5045911;28;20222;-46
2023/04/04 00:29:07;;;;;;;0.90;0.63;;;16.10;58.40;;;;;;5032363;28;20686;-47
2023/04/04 00:31:39;;;;;;;1.40;0.83;;;16.00;58.00;;;;;;5052016;28;20667;-47
2023/04/04 00:34:07;;;;;;;1.40;1.10;;;16.00;58.10;;;;;;5056832;28;20490;-47
2023/04/04 00:36:38;;;;;;;0.80;0.80;;;16.00;58.00;;;;;;5045191;28;20252;-47
2023/04/04 00:39:09;;;;;;;0.93;0.60;;;16.00;58.10;;;;;;5032991;28;20643;-46
2023/04/04 00:41:40;;;;;;;1.00;0.80;;;16.00;58.10;;;;;;5043222;28;20190;-46
2023/04/04 00:44:12;;;;;;;1.13;0.93;;;16.00;58.10;;;;;;5033456;28;20272;-47
2023/04/04 00:46:43;;;;;;;1.10;0.97;;;16.00;58.10;;;;;;5048409;28;20240;-46
2023/04/04 00:49:11;;;;;;;0.87;0.50;;;16.00;58.20;;;;;;5052916;28;20202;-47
2023/04/04 00:51:42;;;;;;;1.60;1.07;;;16.00;58.20;;;;;;5052314;28;20817;-47
2023/04/04 00:54:14;;;;;;;1.27;0.83;;;16.00;58.20;;;;;;5033489;28;20194;-47
2023/04/04 00:56:45;;;;;;;0.83;0.70;;;16.00;58.10;;;;;;5048852;28;20350;-47
2023/04/04 00:59:14;;;;;;;1.70;0.87;;;16.00;58.20;;;;;;5049917;28;20573;-47
2023/04/04 01:01:47;;;;;;;0.90;0.70;;;15.90;58.10;;;;;;5047639;28;20207;-47
2023/04/04 01:04:20;;;;;;;1.20;0.90;;;16.00;58.30;;;;;;5033176;28;20233;-47
2023/04/04 01:06:51;;;;;;;1.63;1.23;;;15.90;58.20;;;;;;5049886;28;20213;-47
2023/04/04 01:09:22;;;;;;;1.03;0.70;;;15.90;58.20;;;;;;5050563;28;20206;-47
2023/04/04 01:11:56;;;;;;;1.00;0.80;;;16.00;58.30;;;;;;5033113;28;20237;-47
2023/04/04 01:14:42;;;;;;;0.77;0.50;;;15.90;58.20;;;;;;5047949;28;20311;-46
2023/04/04 01:17:17;;;;;;;0.80;0.50;;;15.90;58.20;;;;;;5055919;28;20209;-46
2023/04/04 01:20:21;;;;;;;1.63;0.80;;;15.90;58.30;;;;;;5054678;28;20433;-46
2023/04/04 01:23:01;;;;;;;0.60;0.60;;;15.90;58.30;;;;;;5041126;28;20214;-47
2023/04/04 01:25:31;;;;;;;1.63;0.93;;;15.90;58.30;;;;;;5034300;28;20670;-46
2023/04/04 01:28:01;;;;;;;1.10;0.80;;;15.90;58.40;;;;;;5035579;28;20757;-46
2023/04/04 01:30:33;;;;;;;1.10;0.80;;;15.90;58.40;;;;;;5048323;28;20570;-46
2023/04/04 01:33:20;;;;;;;1.27;0.87;;;15.90;58.60;;;;;;5032424;28;20199;-46
2023/04/04 01:36:16;;;;;;;1.00;0.90;;;15.90;58.60;;;;;;5047700;28;20217;-47
2023/04/04 01:39:07;;;;;;;1.30;0.63;;;15.90;58.40;;;;;;5047010;28;20298;-46
2023/04/04 01:41:42;;;;;;;1.93;0.93;;;15.90;58.50;;;;;;5034325;28;20203;-47
2023/04/04 01:44:18;;;;;;;1.00;0.70;;;15.80;58.40;;;;;;5034006;28;20731;-46
2023/04/04 01:46:57;;;;;;;1.33;0.80;;;15.80;58.40;;;;;;5032093;28;20281;-47
2023/04/04 01:49:26;;;;;;;0.80;0.60;;;15.80;58.50;;;;;;5051095;28;20276;-47
2023/04/04 01:51:55;;;;;;;1.13;0.80;;;15.80;58.50;;;;;;5050147;28;20206;-46
2023/04/04 01:54:27;;;;;;;1.47;0.93;;;15.80;58.40;;;;;;5031993;28;20245;-46
2023/04/04 01:56:57;;;;;;;0.83;0.80;;;15.90;58.50;;;;;;5052203;28;20190;-46
2023/04/04 01:59:28;;;;;;;1.57;0.70;;;15.80;58.50;;;;;;5050286;28;20194;-46
2023/04/04 02:01:59;;;;;;;0.93;0.70;;;15.80;58.50;;;;;;5051173;28;20234;-47
2023/04/04 02:04:30;;;;;;;0.70;0.53;;;15.80;58.50;;;;;;5049597;28;20226;-46
2023/04/04 02:07:01;;;;;;;1.20;0.90;;;15.80;58.50;;;;;;5051442;28;20202;-46
2023/04/04 02:09:37;;;;;;;1.07;0.70;;;15.80;58.50;;;;;;5051099;28;20280;-46
2023/04/04 02:12:07;;;;;;;1.77;1.10;;;15.80;58.60;;;;;;5016927;28;20214;-47
2023/04/04 02:14:39;;;;;;;1.20;0.83;;;15.80;58.60;;;;;;5027502;28;20620;-46
2023/04/04 02:17:09;;;;;;;0.80;0.80;;;15.80;58.60;;;;;;5050917;28;20198;-46
2023/04/04 02:19:43;;;;;;;0.73;0.60;;;15.80;58.60;;;;;;5049351;28;20264;-47
2023/04/04 02:22:26;;;;;;;1.10;0.83;;;15.80;58.60;;;;;;5046231;28;20712;-46
2023/04/04 02:24:56;;;;;;;0.70;0.53;;;15.80;58.60;;;;;;5029583;28;20225;-46
2023/04/04 02:27:27;;;;;;;1.10;0.70;;;15.80;58.60;;;;;;5049381;28;20206;-47
2023/04/04 02:29:59;;;;;;;1.03;0.70;;;15.80;58.60;;;;;;5048937;28;20517;-47
2023/04/04 02:32:32;;;;;;;1.53;0.80;;;15.80;58.70;;;;;;5051001;28;20233;-46
2023/04/04 02:35:06;;;;;;;0.90;0.80;;;15.70;58.60;;;;;;5044940;28;20749;-47
2023/04/04 02:37:35;;;;;;;1.70;0.87;;;15.70;58.60;;;;;;5045933;28;20207;-46
2023/04/04 02:40:10;;;;;;;0.90;0.70;;;15.80;58.60;;;;;;5048952;28;20528;-47
2023/04/04 02:42:43;;;;;;;1.53;0.97;;;15.70;58.50;;;;;;5046331;28;20926;-47
2023/04/04 02:45:16;;;;;;;1.30;1.13;;;15.70;58.50;;;;;;5048797;28;20197;-47
2023/04/04 02:47:53;;;;;;;0.83;0.60;;;15.70;58.60;;;;;;5050848;28;20731;-46
2023/04/04 02:50:24;;;;;;;0.87;0.70;;;15.70;58.50;;;;;;5044034;28;20233;-47
2023/04/04 02:53:04;;;;;;;1.70;0.83;;;15.70;58.60;;;;;;5031266;28;20253;-46
2023/04/04 02:55:34;;;;;;;1.60;0.90;;;15.70;58.50;;;;;;5048813;28;20186;-46
2023/04/04 02:58:06;;;;;;;2.53;1.00;;;15.70;58.60;;;;;;5048503;28;20198;-46
2023/04/04 03:00:38;;;;;;;1.17;0.93;;;15.60;58.50;;;;;;5051587;28;20216;-47
2023/04/04 03:03:10;;;;;;;1.13;0.70;;;15.60;58.50;;;;;;5045636;28;20216;-47
2023/04/04 03:05:42;;;;;;;1.30;0.90;;;15.70;58.50;;;;;;5034659;28;20612;-46
2023/04/04 03:08:12;;;;;;;1.03;0.73;;;15.70;58.50;;;;;;5046022;28;20558;-46
2023/04/04 03:10:44;;;;;;;1.20;0.80;;;15.70;58.50;;;;;;5049778;28;20198;-46
2023/04/04 03:13:12;;;;;;;1.30;1.00;;;15.60;58.40;;;;;;5032500;28;20253;-46
2023/04/04 03:15:44;;;;;;;1.97;0.70;;;15.60;58.50;;;;;;5055972;28;20221;-47
2023/04/04 03:18:15;;;;;;;1.00;0.90;;;15.70;58.50;;;;;;5051840;28;20257;-47
2023/04/04 03:20:45;;;;;;;1.50;0.70;;;15.60;58.40;;;;;;5049747;28;20197;-47
2023/04/04 03:23:29;;;;;;;1.03;0.90;;;15.70;58.50;;;;;;5052485;28;20284;-46
2023/04/04 03:26:01;;;;;;;0.87;0.80;;;15.60;58.40;;;;;;5050058;28;20218;-47
2023/04/04 03:28:29;;;;;;;1.53;0.90;;;15.60;58.40;;;;;;5049814;28;20190;-46
2023/04/04 03:30:56;;;;;;;1.40;0.87;;;15.60;58.40;;;;;;5044032;28;20870;-46
2023/04/04 03:33:26;;;;;;;0.73;0.60;;;15.60;58.40;;;;;;5034738;28;20218;-47
2023/04/04 03:35:57;;;;;;;1.73;1.10;;;15.60;58.40;;;;;;5052162;28;20182;-47
2023/04/04 03:38:26;;;;;;;1.23;0.90;;;15.60;58.40;;;;;;5045690;28;20200;-46
2023/04/04 03:41:04;;;;;;;1.40;0.80;;;15.60;58.40;;;;;;5050968;28;20277;-46
2023/04/04 03:43:33;;;;;;;0.80;0.60;;;15.60;58.40;;;;;;5035005;28;20213;-46
2023/04/04 03:46:03;;;;;;;1.10;0.90;;;15.60;58.40;;;;;;5039117;28;20203;-46
2023/04/04 03:48:33;;;;;;;1.17;1.00;;;15.60;58.40;;;;;;5028226;28;20198;-46
2023/04/04 03:51:03;;;;;;;0.87;0.60;;;15.60;58.40;;;;;;5052496;28;20202;-47
2023/04/04 03:53:37;;;;;;;1.60;0.87;;;15.50;58.30;;;;;;5051711;28;20251;-47
2023/04/04 03:56:09;;;;;;;1.63;0.90;;;15.50;58.30;;;;;;5035222;28;20600;-47
2023/04/04 03:58:41;;;;;;;1.77;0.90;;;15.60;58.40;;;;;;5048183;28;20191;-46
2023/04/04 04:01:09;;;;;;;2.03;0.73;;;15.50;58.40;;;;;;5062369;28;20210;-46
2023/04/04 04:03:42;;;;;;;1.77;1.10;;;15.50;58.40;;;;;;5051600;28;20638;-46
2023/04/04 04:06:11;;;;;;;2.70;0.80;;;15.50;58.40;;;;;;5051619;28;20203;-47
2023/04/04 04:08:40;;;;;;;2.70;1.03;;;15.50;58.40;;;;;;5048751;28;20434;-46
2023/04/04 04:11:11;;;;;;;1.43;0.80;;;15.50;58.40;;;;;;5049669;28;20655;-47
2023/04/04 04:13:42;;;;;;;2.20;0.90;;;15.50;58.40;;;;;;5032099;28;20258;-47
2023/04/04 04:16:12;;;;;;;1.60;1.10;;;15.50;58.40;;;;;;5043433;28;20202;-47
2023/04/04 04:18:42;;;;;;;1.73;0.90;;;15.50;58.30;;;;;;5047330;28;20557;-47
2023/04/04 04:21:15;;;;;;;1.37;1.10;;;15.50;58.30;;;;;;5051915;28;20623;-47
2023/04/04 04:23:50;;;;;;;2.37;1.07;;;15.50;58.40;;;;;;5035346;28;20687;-47
2023/04/04 04:26:23;;;;;;;1.37;1.00;;;15.40;58.30;;;;;;5049020;28;20223;-47
2023/04/04 04:28:55;;;;;;;1.87;1.10;;;15.50;58.40;;;;;;5047535;28;20202;-47
2023/04/04 04:31:25;;;;;;;1.07;0.80;;;15.50;58.40;;;;;;5055535;28;20194;-47
2023/04/04 04:33:56;;;;;;;2.40;1.07;;;15.50;58.40;;;;;;5033750;28;20191;-47
2023/04/04 04:36:27;;;;;;;2.77;0.87;;;15.50;58.30;;;;;;5046289;28;20186;-46
2023/04/04 04:38:55;;;;;;;1.03;0.80;;;15.40;58.30;;;;;;5033534;28;20203;-47
2023/04/04 04:41:29;;;;;;;1.20;1.00;;;15.40;58.30;;;;;;5050096;28;20252;-47
2023/04/04 04:43:58;;;;;;;3.33;1.23;;;15.40;58.40;;;;;;5051440;28;20288;-47
2023/04/04 04:46:29;;;;;;;1.40;1.00;;;15.40;58.30;;;;;;5027717;28;20199;-46
2023/04/04 04:48:59;;;;;;;1.47;0.87;;;15.40;58.30;;;;;;5047734;28;20864;-46
2023/04/04 04:51:31;;;;;;;1.00;0.90;;;15.40;58.30;;;;;;5051345;28;20202;-46
2023/04/04 04:54:03;;;;;;;1.23;1.00;;;15.40;58.80;;;;;;5051921;28;20226;-46
2023/04/04 04:56:36;;;;;;;1.57;1.40;;;15.40;58.20;;;;;;5049586;28;20213;-46
2023/04/04 04:59:07;;;;;;;1.20;1.00;;;15.40;58.10;;;;;;5034614;28;20202;-46
2023/04/04 05:01:48;;;;;;;1.43;0.90;;;15.40;58.10;;;;;;5033488;28;20237;-47
2023/04/04 05:04:21;;;;;;;1.03;0.93;;;15.40;58.00;;;;;;5031932;28;20182;-46
2023/04/04 05:06:50;;;;;;;1.70;1.23;;;15.40;58.00;;;;;;5050861;28;20217;-47
2023/04/04 05:09:22;;;;;;;2.07;1.10;;;15.40;58.00;;;;;;5050961;28;20511;-46
2023/04/04 05:11:53;;;;;;;2.53;1.00;;;15.40;58.00;;;;;;5051107;28;20916;-46
2023/04/04 05:14:22;;;;;;;3.43;1.10;;;15.40;58.10;;;;;;5053222;28;20590;-46
2023/04/04 05:16:53;;;;;;;1.17;0.90;;;15.40;58.10;;;;;;5033754;28;20232;-47
2023/04/04 05:19:24;;;;;;;1.43;1.00;;;15.40;58.00;;;;;;5045771;28;20238;-46
2023/04/04 05:21:57;;;;;;;1.80;1.10;;;15.40;58.10;;;;;;5044393;28;20198;-47
2023/04/04 05:24:27;;;;;;;2.83;1.30;;;15.40;58.20;;;;;;5045464;28;20194;-46
2023/04/04 05:26:56;;;;;;;2.00;1.47;;;15.40;58.30;;;;;;5032667;28;20214;-47
2023/04/04 05:29:32;;;;;;;1.90;1.20;;;15.30;58.40;;;;;;5052819;28;20198;-46
2023/04/04 05:32:15;;;;;;;1.90;1.20;;;15.40;58.30;;;;;;5050248;28;20297;-47
2023/04/04 05:34:47;;;;;;;1.97;1.17;;;15.40;58.40;;;;;;5047508;28;20190;-46
2023/04/04 05:37:19;;;;;;;1.27;1.10;;;15.40;58.60;;;;;;5040280;28;20561;-47
2023/04/04 05:39:49;;;;;;;2.13;1.00;;;15.40;58.80;;;;;;5032232;28;20201;-47
2023/04/04 05:42:20;;;;;;;1.80;1.00;;;15.40;58.70;;;;;;5049789;28;20617;-47
2023/04/04 05:44:53;;;;;;;2.17;1.37;;;15.40;58.60;;;;;;5054950;28;20191;-47
2023/04/04 05:47:25;;;;;;;2.60;1.20;;;15.40;58.40;;;;;;5050026;28;20635;-46
2023/04/04 05:49:53;;;;;;;2.73;1.30;;;15.40;58.30;;;;;;5029099;28;20233;-47
2023/04/04 05:52:23;;;;;;;3.17;1.30;;;15.50;58.30;;;;;;5048944;28;20214;-46
2023/04/04 05:54:53;;;;;;;2.40;1.03;;;15.50;58.10;;;;;;5049762;28;20198;-47
2023/04/04 05:57:23;;;;;;;1.70;1.10;;;15.50;58.00;;;;;;5049713;28;20199;-46
2023/04/04 05:59:53;;;;;;;1.30;1.20;;;15.40;57.70;;;;;;5056676;28;20701;-46
2023/04/04 06:02:21;;;;;;;4.50;1.30;;;15.50;57.70;;;;;;5045494;28;20577;-46
2023/04/04 06:04:52;;;;;;;2.07;1.33;;;15.50;57.50;;;;;;5048571;28;20268;-47
2023/04/04 06:07:21;;;;;;;2.57;1.33;;;15.50;57.40;;;;;;5046987;28;20295;-46
2023/04/04 06:09:50;;;;;;;1.20;1.10;;;15.40;57.20;;;;;;5049368;28;20209;-47
2023/04/04 06:12:22;;;;;;;1.93;1.27;;;15.40;57.20;;;;;;5048617;28;20222;-47
2023/04/04 06:15:04;;;;;;;10.87;2.27;;;15.50;57.20;;;;;;5036670;28;20221;-46
2023/04/04 06:17:36;;;;;;;12.30;2.80;;;15.40;57.60;;;;;;5050803;28;20203;-46
2023/04/04 06:20:07;;;;;;;44.73;8.83;;;15.50;57.70;;;;;;5051476;28;20621;-46
2023/04/04 06:22:38;;;;;;;39.63;8.63;;;15.50;58.50;;;;;;5041688;28;20230;-46
2023/04/04 06:25:09;;;;;;;29.87;7.97;;;15.50;58.50;;;;;;5043775;28;20214;-46
2023/04/04 06:27:52;;;;;;;39.80;8.27;;;15.50;59.00;;;;;;5048836;28;20213;-46
2023/04/04 06:30:21;;;;;;;35.00;7.70;;;15.60;59.40;;;;;;5050816;28;20206;-46
2023/04/04 06:32:52;;;;;;;33.53;8.13;;;15.60;59.40;;;;;;5033145;28;20222;-47
2023/04/04 06:35:27;;;;;;;24.77;6.80;;;15.70;59.50;;;;;;5040896;28;20201;-47
2023/04/04 06:37:59;;;;;;;27.70;7.23;;;15.80;59.10;;;;;;5045329;28;20202;-47
2023/04/04 06:40:30;;;;;;;25.73;6.60;;;15.80;59.20;;;;;;5033877;28;20209;-47
2023/04/04 06:42:58;;;;;;;22.70;7.17;;;15.90;58.90;;;;;;5030930;28;20218;-46
2023/04/04 06:45:31;;;;;;;27.13;6.33;;;16.00;58.90;;;;;;5054672;28;20293;-47
2023/04/04 06:48:03;;;;;;;20.40;6.23;;;16.10;58.90;;;;;;5048057;28;20518;-47
2023/04/04 06:50:32;;;;;;;24.17;6.07;;;16.10;58.60;;;;;;5044036;28;20210;-47
2023/04/04 06:53:02;;;;;;;19.20;6.27;;;16.10;58.50;;;;;;5047940;28;20206;-47
2023/04/04 06:55:33;;;;;;;20.90;6.53;;;16.20;58.40;;;;;;5048569;28;20693;-47
2023/04/04 06:58:04;;;;;;;21.20;5.50;;;16.30;58.30;;;;;;5010803;28;20253;-47
2023/04/04 07:00:35;;;;;;;16.33;5.50;;;16.30;58.10;;;;;;5045859;28;20206;-47
2023/04/04 07:03:06;;;;;;;16.43;5.63;;;16.40;57.90;;;;;;5034661;28;20697;-47
2023/04/04 07:05:40;;;;;;;16.57;4.63;;;16.40;57.70;;;;;;5048505;28;20263;-48
2023/04/04 07:08:11;;;;;;;18.33;5.40;;;16.50;57.70;;;;;;5048121;28;20670;-47
2023/04/04 07:10:50;;;;;;;12.83;4.73;;;16.50;57.50;;;;;;5047130;28;20237;-47
2023/04/04 07:13:20;;;;;;;16.03;5.10;;;16.70;57.30;;;;;;5047494;28;20272;-47
2023/04/04 07:15:52;;;;;;;19.30;4.87;;;16.70;57.30;;;;;;5030902;28;20198;-48
2023/04/04 07:18:24;;;;;;;14.80;4.50;;;16.80;57.10;;;;;;5046239;28;20291;-47
2023/04/04 07:20:54;;;;;;;13.23;4.53;;;16.80;56.90;;;;;;5048347;28;20583;-47
2023/04/04 07:23:25;;;;;;;10.27;4.10;;;16.90;56.60;;;;;;5047885;28;20233;-48
2023/04/04 07:25:55;;;;;;;11.70;3.77;;;17.00;56.40;;;;;;5032454;28;20207;-47
2023/04/04 07:28:25;;;;;;;9.10;4.03;;;17.10;56.40;;;;;;5047934;28;20609;-48
2023/04/04 07:31:02;;;;;;;7.70;3.67;;;17.10;56.00;;;;;;5028864;28;20190;-47
2023/04/04 07:33:34;;;;;;;9.30;3.53;;;17.20;55.90;;;;;;5031792;28;20545;-47
2023/04/04 07:36:08;;;;;;;12.37;4.03;;;17.20;55.60;;;;;;5047634;28;20209;-47
2023/04/04 07:38:44;;;;;;;9.60;3.17;;;17.30;55.50;;;;;;5042034;28;20213;-48
2023/04/04 07:41:15;;;;;;;9.80;3.17;;;17.30;55.10;;;;;;5047367;28;20194;-48
2023/04/04 07:43:45;;;;;;;7.70;3.60;;;17.30;55.10;;;;;;5052634;28;20209;-48
2023/04/04 07:46:15;;;;;;;6.60;2.80;;;17.40;55.20;;;;;;5051318;28;20198;-48
2023/04/04 07:48:49;;;;;;;9.37;3.53;;;17.40;55.30;;;;;;5048847;28;20303;-47
2023/04/04 07:51:34;;;;;;;9.20;3.43;;;17.40;55.10;;;;;;5049487;28;20298;-47
2023/04/04 07:54:05;;;;;;;7.23;2.87;;;17.50;55.10;;;;;;5050958;28;20242;-47
2023/04/04 07:56:35;;;;;;;7.77;3.40;;;17.50;54.60;;;;;;5049529;28;20202;-47
2023/04/04 07:59:11;;;;;;;9.17;2.93;;;17.50;55.10;;;;;;5047190;28;20197;-47
2023/04/04 08:01:46;;;;;;;10.90;2.90;;;17.60;54.40;;;;;;5040205;28;20198;-47
2023/04/04 08:04:16;;;;;;;9.23;3.27;;;17.60;53.50;;;;;;5045708;28;20217;-47
2023/04/04 08:06:48;;;;;;;6.10;2.77;;;17.60;54.20;;;;;;5033012;28;20205;-47
2023/04/04 08:09:19;;;;;;;7.00;2.73;;;17.50;54.60;;;;;;5050554;28;20576;-48
2023/04/04 08:11:53;;;;;;;8.67;3.00;;;17.50;54.80;;;;;;5056780;28;20659;-47
2023/04/04 08:14:21;;;;;;;10.43;2.50;;;17.60;54.10;;;;;;5047897;28;20238;-47
2023/04/04 08:16:52;;;;;;;6.20;2.30;;;17.60;54.20;;;;;;5033549;28;20208;-47
2023/04/04 08:19:19;;;;;;;3.87;2.30;;;17.60;54.50;;;;;;5049725;28;20253;-47
2023/04/04 08:21:47;;;;;;;5.33;2.40;;;17.60;54.50;;;;;;5051379;28;20214;-47
2023/04/04 08:24:16;;;;;;;4.67;2.07;;;17.60;54.40;;;;;;5050823;28;20205;-47
2023/04/04 08:26:46;;;;;;;5.03;2.60;;;17.60;54.00;;;;;;5049464;28;20771;-46
2023/04/04 08:29:33;;;;;;;5.23;2.50;;;17.60;54.30;;;;;;5040529;28;20207;-47
2023/04/04 08:32:03;;;;;;;5.10;1.90;;;17.60;54.10;;;;;;5032893;28;20191;-47
2023/04/04 08:34:33;;;;;;;4.87;1.73;;;17.60;54.50;;;;;;5030972;28;20649;-47
2023/04/04 08:37:03;;;;;;;4.13;2.20;;;17.70;54.70;;;;;;5031461;28;20220;-48
2023/04/04 08:39:31;;;;;;;4.67;1.90;;;17.70;54.10;;;;;;5032675;28;20217;-47
2023/04/04 08:42:06;;;;;;;3.50;1.90;;;17.70;54.60;;;;;;5053332;28;20268;-47
2023/04/04 08:44:44;;;;;;;4.17;1.83;;;17.70;53.90;;;;;;5031166;28;20216;-47
2023/04/04 08:47:21;;;;;;;4.53;2.27;;;17.80;54.40;;;;;;5034254;28;20642;-47
2023/04/04 08:49:53;;;;;;;5.37;2.40;;;17.80;54.40;;;;;;5047353;28;20216;-47
2023/04/04 08:52:28;;;;;;;3.50;1.87;;;17.80;53.90;;;;;;5047267;28;20214;-47
2023/04/04 08:54:58;;;;;;;5.50;1.57;;;17.90;54.20;;;;;;5050027;28;20225;-46
2023/04/04 08:57:28;;;;;;;3.03;1.73;;;17.90;53.70;;;;;;5035238;28;20661;-47
2023/04/04 08:59:59;;;;;;;3.50;1.77;;;18.00;53.80;;;;;;5020774;28;20213;-47
2023/04/04 09:02:47;;;;;;;5.70;1.67;;;18.00;53.50;;;;;;5027055;28;20647;-47
2023/04/04 09:05:22;;;;;;;2.70;1.50;;;18.00;53.90;;;;;;5050239;28;20210;-47
2023/04/04 09:07:50;;;;;;;5.30;1.50;;;18.00;53.50;;;;;;5032356;28;20205;-47
2023/04/04 09:10:22;;;;;;;5.00;1.57;;;18.00;54.00;;;;;;5033967;28;20226;-47
2023/04/04 09:13:05;;;;;;;3.50;1.53;;;18.10;53.50;;;;;;5046983;28;20248;-47
2023/04/04 09:15:53;;;;;;;3.10;1.60;;;18.10;54.00;;;;;;5035455;28;20191;-47
2023/04/04 09:18:27;;;;;;;2.17;1.57;;;18.20;53.10;;;;;;5027755;28;20226;-47
2023/04/04 09:20:55;;;;;;;2.50;1.40;;;18.20;53.20;;;;;;5032552;28;20202;-47
2023/04/04 09:23:42;;;;;;;3.70;1.60;;;18.20;53.80;;;;;;5049428;28;20217;-48
2023/04/04 09:26:15;;;;;;;2.97;1.70;;;18.30;53.80;;;;;;5038046;28;20303;-48
2023/04/04 09:28:52;;;;;;;2.80;1.40;;;18.30;53.00;;;;;;5035414;28;20550;-48
2023/04/04 09:31:35;;;;;;;3.50;1.63;;;18.40;53.30;;;;;;5034366;28;20636;-47
2023/04/04 09:34:04;;;;;;;3.23;1.70;;;18.40;53.10;;;;;;5049006;28;20694;-47
2023/04/04 09:36:34;;;;;;;4.93;1.60;;;18.40;53.10;;;;;;5044714;28;20651;-48
2023/04/04 09:39:07;;;;;;;5.83;1.53;;;18.40;53.90;;;;;;5032010;28;20226;-48
2023/04/04 09:41:40;;;;;;;7.73;1.77;;;18.30;53.10;;;;;;5033017;28;20194;-47
2023/04/04 09:44:11;;;;;;;5.80;1.67;;;18.30;53.70;;;;;;5032270;28;20202;-47
2023/04/04 09:46:41;;;;;;;3.00;1.80;;;18.40;53.00;;;;;;5029245;28;20589;-47
2023/04/04 09:49:22;;;;;;;4.30;1.90;;;18.40;52.10;;;;;;5045644;28;20237;-47
2023/04/04 09:51:57;;;;;;;3.00;1.50;;;18.40;53.40;;;;;;5048967;28;20209;-47
2023/04/04 09:54:29;;;;;;;3.63;1.80;;;18.40;52.20;;;;;;5047505;28;20214;-47
2023/04/04 09:57:10;;;;;;;2.53;1.97;;;18.40;52.50;;;;;;5043391;28;20261;-47
2023/04/04 09:59:43;;;;;;;2.40;1.40;;;18.40;52.60;;;;;;5048387;28;20194;-47
2023/04/04 10:02:15;;;;;;;3.50;2.00;;;18.50;52.20;;;;;;5029802;28;20206;-47
2023/04/04 10:04:44;;;;;;;7.40;3.00;;;18.50;53.60;;;;;;5013291;28;20203;-47
2023/04/04 10:07:20;;;;;;;8.77;2.20;;;18.60;54.20;;;;;;5041841;28;20306;-47
2023/04/04 10:09:59;;;;;;;5.13;2.57;;;18.70;55.30;;;;;;5032309;28;20210;-47
2023/04/04 10:12:29;;;;;;;5.67;2.07;;;18.70;55.10;;;;;;5001007;28;20205;-46
2023/04/04 10:15:00;;;;;;;4.60;2.43;;;18.60;55.70;;;;;;5046662;28;20554;-46
2023/04/04 10:17:40;;;;;;;7.07;2.23;;;18.60;55.30;;;;;;5049380;28;20542;-47
2023/04/04 10:20:11;;;;;;;3.93;1.60;;;18.60;55.00;;;;;;5049131;28;20752;-46
2023/04/04 10:23:07;;;;;;;7.17;2.33;;;18.60;55.00;;;;;;5049864;28;20288;-46
2023/04/04 10:25:36;;;;;;;8.50;2.10;;;18.60;54.70;;;;;;5048723;28;20228;-46
2023/04/04 10:28:07;;;;;;;2.87;1.70;;;18.60;55.30;;;;;;5049558;28;20251;-46
2023/04/04 10:30:49;;;;;;;5.30;1.80;;;18.60;55.00;;;;;;5029353;28;20194;-46
2023/04/04 10:34:11;;;;;;;6.53;2.43;;;18.50;55.30;;;;;;5018380;28;20221;-46
2023/04/04 10:36:57;;;;;;;5.77;1.87;;;18.50;55.60;;;;;;5039426;28;20652;-46
2023/04/04 10:39:45;;;;;;;4.63;2.03;;;18.50;54.90;;;;;;5049950;28;20205;-46
2023/04/04 10:42:22;;;;;;;8.13;1.80;;;18.50;55.20;;;;;;5030845;28;20255;-46
2023/04/04 10:44:51;;;;;;;3.63;1.97;;;18.50;55.20;;;;;;5049636;28;20218;-45
2023/04/04 10:47:38;;;;;;;3.50;1.43;;;18.40;55.00;;;;;;5026351;28;20194;-46
2023/04/04 10:50:11;;;;;;;3.00;1.43;;;18.40;54.60;;;;;;5031101;28;20225;-46
2023/04/04 10:52:46;;;;;;;4.07;1.80;;;18.40;54.50;;;;;;5046057;28;20215;-46
2023/04/04 10:55:17;;;;;;;3.93;1.50;;;18.40;54.50;;;;;;5053662;28;20255;-47
2023/04/04 10:57:54;;;;;;;4.53;1.57;;;18.40;54.60;;;;;;5050943;28;20206;-47
2023/04/04 11:00:23;;;;;;;5.60;1.80;;;18.40;54.60;;;;;;5046799;28;20197;-46
2023/04/04 11:03:04;;;;;;;4.17;1.40;;;18.40;54.90;;;;;;5030484;28;20271;-46
2023/04/04 11:05:42;;;;;;;2.37;1.37;;;18.40;54.80;;;;;;5048713;28;20198;-46
2023/04/04 11:08:25;;;;;;;6.30;1.50;;;18.40;55.30;;;;;;5036928;28;20578;-46
2023/04/04 11:10:56;;;;;;;3.47;1.30;;;18.50;55.10;;;;;;5034696;28;20190;-46
2023/04/04 11:13:35;;;;;;;4.20;1.33;;;18.50;54.40;;;;;;5029486;28;20222;-46
2023/04/04 11:16:14;;;;;;;2.37;1.17;;;18.50;55.00;;;;;;5048299;28;20195;-45
2023/04/04 11:18:48;;;;;;;7.00;1.43;;;18.50;54.50;;;;;;5028336;28;20222;-46
2023/04/04 11:21:26;;;;;;;4.43;1.40;;;18.50;54.80;;;;;;5035900;28;20191;-45
2023/04/04 11:24:17;;;;;;;2.53;1.10;;;18.60;54.00;;;;;;5055040;28;20657;-46
2023/04/04 11:26:46;;;;;;;3.13;1.23;;;18.60;54.00;;;;;;5031025;28;20214;-47
2023/04/04 11:29:43;;;;;;;2.33;1.20;;;18.70;54.50;;;;;;5049628;28;20238;-47
2023/04/04 11:32:47;;;;;;;5.40;1.37;;;18.70;54.80;;;;;;5038055;28;20620;-47
2023/04/04 11:35:32;;;;;;;2.70;1.20;;;18.80;54.30;;;;;;5036230;28;20217;-47
2023/04/04 11:38:02;;;;;;;1.60;1.20;;;18.80;54.20;;;;;;5048889;28;20213;-47
2023/04/04 11:40:41;;;;;;;2.43;1.23;;;18.80;54.10;;;;;;5033111;28;20225;-47
2023/04/04 11:43:15;;;;;;;3.40;1.20;;;18.90;53.90;;;;;;5051632;28;20194;-46
2023/04/04 11:45:48;;;;;;;1.70;1.20;;;18.90;53.90;;;;;;5035045;28;20183;-46
2023/04/04 11:48:19;;;;;;;3.63;1.27;;;19.00;53.80;;;;;;5051084;28;20534;-47
2023/04/04 11:50:50;;;;;;;2.03;1.23;;;18.90;53.50;;;;;;5047456;28;20214;-46
2023/04/04 11:53:21;;;;;;;6.07;1.37;;;18.90;53.50;;;;;;5050222;28;20268;-47
2023/04/04 11:55:52;;;;;;;1.57;1.00;;;19.00;53.70;;;;;;5055762;28;20270;-47
2023/04/04 11:58:21;;;;;;;2.23;1.27;;;19.00;53.20;;;;;;5049195;28;20644;-47
2023/04/04 12:00:54;;;;;;;1.87;1.13;;;19.10;53.90;;;;;;5049210;28;20873;-46
2023/04/04 12:03:30;;;;;;;3.47;0.90;;;19.10;53.70;;;;;;5051461;28;20325;-46
2023/04/04 12:06:21;;;;;;;3.83;1.00;;;19.10;53.50;;;;;;5051556;28;20294;-46
2023/04/04 12:08:52;;;;;;;2.13;1.10;;;19.20;53.90;;;;;;5050462;28;20654;-46
2023/04/04 12:11:27;;;;;;;5.37;1.00;;;19.20;53.20;;;;;;5040608;28;20186;-46
2023/04/04 12:13:56;;;;;;;2.60;1.33;;;19.20;53.90;;;;;;5040025;28;20235;-46
2023/04/04 12:16:27;;;;;;;7.57;1.13;;;19.20;53.30;;;;;;5047949;28;20202;-46
2023/04/04 12:18:59;;;;;;;2.20;1.00;;;19.20;53.50;;;;;;5050177;28;20222;-46
2023/04/04 12:21:32;;;;;;;1.20;0.90;;;19.30;53.50;;;;;;5034242;28;20631;-47
2023/04/04 12:24:12;;;;;;;3.20;0.90;;;19.30;53.30;;;;;;5048218;28;20194;-47
2023/04/04 12:26:46;;;;;;;1.33;0.90;;;19.40;53.30;;;;;;5046009;28;20210;-46
2023/04/04 12:29:16;;;;;;;2.70;0.83;;;19.40;53.60;;;;;;5048647;28;20252;-47
2023/04/04 12:31:48;;;;;;;3.23;0.93;;;19.40;53.60;;;;;;5032094;28;20198;-47
2023/04/04 12:34:30;;;;;;;1.87;0.90;;;19.40;53.00;;;;;;5050663;28;20684;-47
2023/04/04 12:37:14;;;;;;;3.20;1.10;;;19.50;54.00;;;;;;5048154;28;20313;-46
2023/04/04 12:40:12;;;;;;;1.67;0.93;;;19.40;53.60;;;;;;5053971;28;20778;-47
2023/04/04 12:42:47;;;;;;;2.30;1.00;;;19.50;53.00;;;;;;5043837;28;20217;-47
2023/04/04 12:45:20;;;;;;;1.93;0.80;;;19.50;53.30;;;;;;5032320;28;20218;-47
2023/04/04 12:47:55;;;;;;;1.37;0.93;;;19.60;52.90;;;;;;5033532;28;20210;-46
2023/04/04 12:50:27;;;;;;;3.10;0.90;;;19.40;56.90;;;;;;5045787;28;20224;-46
2023/04/04 12:53:00;;;;;;;3.37;1.00;;;19.30;57.20;;;;;;5035895;28;20402;-46
2023/04/04 12:55:53;;;;;;;2.33;1.10;;;19.20;57.40;;;;;;5029043;28;20221;-47
2023/04/04 12:58:23;;;;;;;1.37;0.93;;;19.20;57.20;;;;;;5032517;28;20206;-46
2023/04/04 13:00:57;;;;;;;3.70;0.80;;;19.20;55.60;;;;;;5042779;28;20224;-47
2023/04/04 13:03:28;;;;;;;1.03;0.73;;;19.30;54.70;;;;;;5037478;28;20198;-46
2023/04/04 13:05:59;;;;;;;1.10;0.60;;;19.40;54.40;;;;;;5050231;28;20190;-48
2023/04/04 13:08:29;;;;;;;1.20;1.00;;;19.40;54.50;;;;;;5054722;28;20198;-48
2023/04/04 13:11:06;;;;;;;3.30;1.00;;;19.50;54.50;;;;;;5013971;28;20202;-47
2023/04/04 13:13:39;;;;;;;2.03;0.80;;;19.50;54.70;;;;;;5054138;28;20217;-47
2023/04/04 13:16:27;;;;;;;3.67;1.00;;;19.50;54.70;;;;;;5054239;28;20197;-47
2023/04/04 13:18:58;;;;;;;1.17;0.77;;;19.50;54.00;;;;;;5044419;28;20628;-47